Urbana, Maryland
Current Conditions -  °F | °C
As of 10:47 AM on Thursday 29 Jan 2015 (Local Time) from KFDK Reporting Station
Clear Clear  
Wind Chill: 27°   Ceiling: Unl
Heat Index: 27°   Visibility: 10mi
Dew Point: 10°   Wind: 0mph
Humidity: 51%   Direction: NA
Pressure: 30.28"   Gusts: NA
Location:  39.3474°N, 77.3714°W
Report Text: KFDK 291547Z 00000KT 10SM SKC M03/M12 A3028
Loading
Personal Weather Stations






























Interactive Weather Map New forecast layout! Learn more

10-Day Weather Forecast

Advertisements
Track Severe Weather on mobile